Time;durP1;ratioP1;P1;durP2;ratioP2;P2;SDS_P1;SDS_P2;PMS_P1;PMS_P2;Temp;Humidity;BMP_temperature;BMP_pressure;BME280_temperature;BME280_humidity;BME280_pressure;Samples;Min_cycle;Max_cycle;Signal;HPM_P1;HPM_P2
2021/03/31 00:01:54;;;;;;;16.27;8.67;;;;;;;3.80;82.59;102360.44;5053088;28;20068;-65
2021/03/31 00:04:20;;;;;;;19.67;10.68;;;;;;;3.85;82.61;102362.00;5054035;28;20076;-65
2021/03/31 00:06:45;;;;;;;24.87;10.00;;;;;;;3.87;83.43;102362.78;5052913;28;20137;-65
2021/03/31 00:09:10;;;;;;;26.47;10.40;;;;;;;3.87;84.58;102358.34;5053602;28;20096;-65
2021/03/31 00:11:36;;;;;;;33.35;13.65;;;;;;;3.84;85.99;102352.34;5052771;28;20579;-65
2021/03/31 00:14:02;;;;;;;30.40;11.18;;;;;;;3.73;86.02;102342.34;5053140;28;20033;-65
2021/03/31 00:16:27;;;;;;;21.45;10.90;;;;;;;3.73;85.90;102340.53;5053781;28;20206;-65
2021/03/31 00:18:53;;;;;;;29.27;10.67;;;;;;;3.75;85.91;102343.97;5052435;28;20040;-65
2021/03/31 00:21:18;;;;;;;20.17;9.47;;;;;;;3.66;84.68;102339.16;5053643;28;20040;-65
2021/03/31 00:23:44;;;;;;;34.10;10.40;;;;;;;3.63;84.20;102335.81;5053621;28;20035;-65
2021/03/31 00:26:09;;;;;;;24.38;9.70;;;;;;;3.58;84.09;102336.91;5053575;28;20343;-65
2021/03/31 00:28:35;;;;;;;21.33;10.60;;;;;;;3.50;85.02;102336.44;5052300;28;20448;-65
2021/03/31 00:31:00;;;;;;;21.13;9.77;;;;;;;3.49;85.67;102332.09;5053405;28;20434;-65
2021/03/31 00:33:25;;;;;;;18.13;10.00;;;;;;;3.34;84.93;102330.22;5053468;28;20029;-65
2021/03/31 00:35:51;;;;;;;17.10;9.97;;;;;;;3.26;84.10;102327.13;5052248;28;20437;-65
2021/03/31 00:38:16;;;;;;;25.90;11.00;;;;;;;3.22;84.52;102318.50;5053030;28;20036;-65
2021/03/31 00:40:48;;;;;;;25.85;13.43;;;;;;;3.27;85.68;102318.25;5035619;28;20087;-65
2021/03/31 00:43:14;;;;;;;28.17;12.43;;;;;;;3.34;86.83;102317.88;5053308;28;20037;-65
2021/03/31 00:45:41;;;;;;;29.33;14.00;;;;;;;3.34;86.97;102315.22;5053248;28;20048;-65
2021/03/31 00:48:07;;;;;;;30.00;13.82;;;;;;;3.41;87.73;102307.84;5051861;28;20098;-65
2021/03/31 00:50:32;;;;;;;23.20;11.82;;;;;;;3.38;86.67;102306.22;5035362;28;20086;-65
2021/03/31 00:53:00;;;;;;;24.20;11.77;;;;;;;3.27;85.96;102299.78;5053261;28;20048;-65
2021/03/31 00:55:29;;;;;;;20.30;10.27;;;;;;;3.19;85.55;102296.69;5052964;28;20060;-65
2021/03/31 00:57:55;;;;;;;27.05;12.02;;;;;;;3.17;85.47;102296.75;5051666;28;20041;-65
2021/03/31 01:00:21;;;;;;;24.70;10.95;;;;;;;3.16;84.72;102297.66;5051889;28;20025;-65
2021/03/31 01:02:46;;;;;;;26.05;11.43;;;;;;;3.12;84.56;102293.50;5051715;28;20453;-65
2021/03/31 01:05:16;;;;;;;23.43;12.27;;;;;;;3.16;85.17;102287.09;5052909;28;20036;-65
2021/03/31 01:07:42;;;;;;;22.77;11.13;;;;;;;3.16;85.26;102288.00;5051453;28;20116;-65
2021/03/31 01:10:10;;;;;;;20.33;11.50;;;;;;;3.12;84.99;102282.94;5052721;28;20037;-65
2021/03/31 01:12:52;;;;;;;21.77;9.65;;;;;;;3.10;84.45;102288.28;5034917;28;20385;-65
2021/03/31 01:15:41;;;;;;;27.52;12.77;;;;;;;3.09;85.27;102288.34;5051500;28;20503;-65
2021/03/31 01:18:22;;;;;;;29.65;14.10;;;;;;;3.13;85.58;102287.28;5051385;28;20106;-64
2021/03/31 01:21:09;;;;;;;26.13;12.70;;;;;;;3.04;84.90;102285.09;5051642;28;20078;-65
2021/03/31 01:23:40;;;;;;;29.23;13.70;;;;;;;3.01;85.18;102283.47;5051439;28;20116;-65
2021/03/31 01:26:22;;;;;;;24.40;12.52;;;;;;;3.00;85.46;102286.16;5050546;28;20123;-65
2021/03/31 01:29:10;;;;;;;27.05;12.85;;;;;;;2.96;85.40;102281.03;5051053;28;20365;-64
2021/03/31 01:32:09;;;;;;;38.13;17.05;;;;;;;3.00;85.85;102287.03;5051285;28;20064;-65
2021/03/31 01:34:39;;;;;;;38.20;14.75;;;;;;;3.05;86.79;102273.63;5052241;28;20045;-65
2021/03/31 01:37:14;;;;;;;26.38;12.88;;;;;;;2.89;85.41;102271.72;5051307;28;20036;-65
2021/03/31 01:39:43;;;;;;;24.85;12.32;;;;;;;2.76;84.88;102281.16;5050887;28;20127;-65
2021/03/31 01:42:10;;;;;;;43.83;17.70;;;;;;;2.74;86.31;102280.41;5051855;28;20135;-65
2021/03/31 01:44:37;;;;;;;41.03;17.92;;;;;;;2.78;87.62;102276.66;5050954;28;20053;-65
2021/03/31 01:47:12;;;;;;;35.90;17.23;;;;;;;2.87;88.10;102270.94;5109282;27;20354;-64
2021/03/31 01:49:39;;;;;;;36.60;17.02;;;;;;;2.92;88.81;102266.28;5107946;28;20058;-64
2021/03/31 01:52:06;;;;;;;36.97;17.45;;;;;;;2.92;88.59;102262.81;5091099;28;20027;-64
2021/03/31 01:54:33;;;;;;;29.30;14.05;;;;;;;2.87;87.98;102265.66;5108100;28;20124;-64
2021/03/31 01:57:00;;;;;;;36.40;15.50;;;;;;;2.73;87.78;102247.88;5108802;28;20039;-64
2021/03/31 01:59:26;;;;;;;34.97;14.88;;;;;;;2.81;87.94;102260.72;5108766;28;20024;-64
2021/03/31 02:01:54;;;;;;;30.02;13.40;;;;;;;2.74;87.20;102252.25;5107954;28;20071;-64
2021/03/31 02:04:23;;;;;;;29.33;14.27;;;;;;;2.71;87.02;102252.38;5108919;28;20040;-64
2021/03/31 02:06:50;;;;;;;34.33;15.45;;;;;;;2.70;86.95;102263.00;5108759;28;20020;-65
2021/03/31 02:09:17;;;;;;;26.33;11.57;;;;;;;2.62;86.53;102260.75;5108490;28;20056;-65
2021/03/31 02:11:44;;;;;;;32.20;15.32;;;;;;;2.63;86.97;102251.91;5107483;28;20456;-65
2021/03/31 02:14:12;;;;;;;26.85;13.38;;;;;;;2.60;86.25;102251.19;5107714;28;20039;-65
2021/03/31 02:16:39;;;;;;;32.38;14.48;;;;;;;2.67;85.91;102247.31;5108664;28;20468;-64
2021/03/31 02:19:05;;;;;;;36.58;19.20;;;;;;;2.66;86.20;102246.47;5108253;28;20040;-65
2021/03/31 02:21:32;;;;;;;37.95;18.70;;;;;;;2.63;86.04;102246.63;5107488;28;20032;-65
2021/03/31 02:23:57;;;;;;;;;;;;;;;2.55;85.69;102243.50;5108827;28;20042;-65
2021/03/31 02:26:26;;;;;;;39.67;18.67;;;;;;;2.48;86.04;102245.59;5107249;28;19995;-65
2021/03/31 02:28:52;;;;;;;46.53;21.65;;;;;;;2.46;86.57;102238.69;5108054;28;20401;-65
2021/03/31 02:31:20;;;;;;;35.15;15.63;;;;;;;2.38;86.08;102244.31;5108384;28;20081;-65
2021/03/31 02:33:46;;;;;;;43.03;19.02;;;;;;;2.36;86.20;102227.72;5107370;28;20338;-64
2021/03/31 02:36:16;;;;;;;36.53;17.20;;;;;;;2.32;85.64;102237.56;5090345;28;20035;-65
2021/03/31 02:38:42;;;;;;;33.42;16.02;;;;;;;2.29;85.75;102227.16;5106780;28;20464;-65
2021/03/31 02:41:09;;;;;;;43.80;19.85;;;;;;;2.34;87.21;102229.56;5108146;28;20609;-65
2021/03/31 02:43:42;;;;;;;46.88;22.15;;;;;;;2.38;87.78;102225.00;5107082;28;20040;-65
2021/03/31 02:46:09;;;;;;;47.05;20.92;;;;;;;2.39;88.26;102227.59;5107985;28;20609;-65
2021/03/31 02:48:37;;;;;;;63.72;23.10;;;;;;;2.45;89.19;102202.69;5107731;28;20064;-64
2021/03/31 02:51:04;;;;;;;53.47;23.55;;;;;;;2.43;89.34;102218.56;5089860;28;20134;-64
2021/03/31 02:53:30;;;;;;;48.97;21.30;;;;;;;2.39;89.45;102214.41;5107907;28;20460;-64
2021/03/31 02:55:56;;;;;;;68.40;24.60;;;;;;;2.44;89.77;102211.53;5106896;28;20104;-64
2021/03/31 02:58:23;;;;;;;47.88;20.13;;;;;;;2.32;88.97;102213.00;5094996;28;20065;-64
2021/03/31 03:00:49;;;;;;;34.70;18.52;;;;;;;2.20;88.51;102213.53;5093244;28;20032;-65
2021/03/31 03:03:15;;;;;;;40.22;18.85;;;;;;;2.08;88.28;102207.94;5093345;28;20058;-65
2021/03/31 03:05:41;;;;;;;39.25;18.42;;;;;;;2.11;88.24;102212.22;5093892;28;20093;-65
2021/03/31 03:08:06;;;;;;;60.30;22.73;;;;;;;2.16;88.81;102199.69;5093809;28;20044;-64
2021/03/31 03:10:32;;;;;;;58.03;25.35;;;;;;;2.22;89.36;102201.16;5093121;28;20039;-64
2021/03/31 03:12:59;;;;;;;55.25;22.40;;;;;;;2.26;89.48;102194.81;5076124;28;20040;-64
2021/03/31 03:15:28;;;;;;;41.42;20.40;;;;;;;2.22;89.32;102193.25;5093993;28;20036;-64
2021/03/31 03:17:54;;;;;;;61.80;26.45;;;;;;;2.33;90.30;102193.59;5093593;28;20035;-64
2021/03/31 03:20:19;;;;;;;55.80;22.58;;;;;;;2.30;90.23;102186.69;5092835;28;20453;-64
2021/03/31 03:22:47;;;;;;;47.22;22.77;;;;;;;2.16;89.67;102183.88;5093842;28;20046;-64
2021/03/31 03:25:14;;;;;;;43.45;18.42;;;;;;;2.10;89.55;102190.25;5092643;28;20526;-64
2021/03/31 03:27:42;;;;;;;34.35;16.40;;;;;;;1.99;88.83;102189.06;5092520;28;20131;-65
2021/03/31 03:30:14;;;;;;;42.08;19.13;;;;;;;1.87;88.58;102185.22;5092631;28;20036;-65
2021/03/31 03:32:41;;;;;;;42.97;20.23;;;;;;;1.83;88.66;102191.56;5093605;28;20377;-64
2021/03/31 03:35:33;;;;;;;49.78;21.15;;;;;;;1.85;88.87;102190.56;5092364;28;20036;-65
2021/03/31 03:37:59;;;;;;;45.10;22.20;;;;;;;1.84;88.84;102194.13;5089232;28;20385;-64
2021/03/31 03:40:26;;;;;;;56.15;24.48;;;;;;;1.88;89.74;102181.69;5093391;28;20074;-64
2021/03/31 03:42:52;;;;;;;46.05;21.75;;;;;;;1.98;89.91;102190.84;5093400;28;20112;-64
2021/03/31 03:45:20;;;;;;;47.13;20.20;;;;;;;1.94;89.46;102189.28;5093071;28;20032;-65
2021/03/31 03:47:46;;;;;;;38.80;18.85;;;;;;;1.85;89.10;102189.69;5093129;28;20063;-64
2021/03/31 03:50:13;;;;;;;47.95;21.00;;;;;;;1.77;88.75;102189.22;5075469;28;20477;-64
2021/03/31 03:52:39;;;;;;;41.20;18.13;;;;;;;1.75;88.71;102193.69;5093257;28;20031;-64
2021/03/31 03:55:06;;;;;;;51.63;19.83;;;;;;;1.75;88.55;102193.69;5093131;28;20028;-64
2021/03/31 03:57:31;;;;;;;51.88;21.08;;;;;;;1.82;88.89;102179.31;5092821;28;20028;-64
2021/03/31 03:59:57;;;;;;;47.23;22.47;;;;;;;1.80;89.24;102182.03;5092879;28;20654;-65
2021/03/31 04:02:23;;;;;;;50.60;23.93;;;;;;;1.88;89.70;102179.03;5092068;28;20032;-64
2021/03/31 04:04:49;;;;;;;39.80;18.60;;;;;;;1.85;89.30;102174.78;5092870;28;20278;-64
2021/03/31 04:07:14;;;;;;;51.88;22.80;;;;;;;1.81;89.22;102173.19;5091932;28;20063;-65
2021/03/31 04:09:42;;;;;;;52.30;18.40;;;;;;;1.71;88.87;102176.31;5091614;28;20043;-65
2021/03/31 04:12:09;;;;;;;49.17;19.20;;;;;;;1.66;88.61;102172.13;5092748;28;20043;-65
2021/03/31 04:14:40;;;;;;;42.05;18.23;;;;;;;1.62;88.39;102177.63;5092667;28;20445;-65
2021/03/31 04:17:08;;;;;;;38.03;16.42;;;;;;;1.59;88.11;102170.72;5091708;28;20094;-65
2021/03/31 04:19:36;;;;;;;37.85;17.55;;;;;;;1.62;88.11;102173.19;5092420;28;20043;-65
2021/03/31 04:22:01;;;;;;;46.63;20.55;;;;;;;1.63;88.40;102164.34;5092738;28;20124;-65
2021/03/31 04:24:27;;;;;;;41.40;20.43;;;;;;;1.65;88.54;102165.16;5091710;28;20035;-65
2021/03/31 04:26:55;;;;;;;50.33;21.63;;;;;;;1.64;88.54;102165.22;5091455;28;20165;-65
2021/03/31 04:29:21;;;;;;;65.65;25.38;;;;;;;1.68;89.41;102162.34;5091210;28;20293;-65
2021/03/31 04:31:46;;;;;;;60.85;26.70;;;;;;;1.75;89.88;102162.09;5074508;28;20073;-65
2021/03/31 04:34:12;;;;;;;55.43;27.13;;;;;;;1.78;90.21;102161.94;5091482;28;20134;-65
2021/03/31 04:36:37;;;;;;;51.85;21.98;;;;;;;1.76;90.07;102161.19;5091468;28;20430;-65
2021/03/31 04:39:05;;;;;;;46.00;20.27;;;;;;;1.60;89.29;102158.41;5092028;28;20040;-65
2021/03/31 04:41:32;;;;;;;43.13;18.35;;;;;;;1.43;88.75;102167.06;5108405;27;20301;-65
2021/03/31 04:43:57;;;;;;;;;;;;;;;1.35;88.48;102166.53;5074784;28;20024;-65
2021/03/31 04:46:22;;;;;;;;;;;;;;;1.41;88.94;102166.28;5074583;28;20398;-65
2021/03/31 04:48:47;;;;;;;29.27;12.67;;;;;;;1.40;88.84;102161.91;5091956;28;19963;-65
2021/03/31 04:51:13;;;;;;;34.07;16.40;;;;;;;1.37;88.58;102162.06;5091161;28;20069;-65
2021/03/31 04:53:38;;;;;;;44.17;18.97;;;;;;;1.39;88.91;102165.47;5091110;28;20089;-65
2021/03/31 04:56:04;;;;;;;51.47;22.77;;;;;;;1.46;89.56;102161.66;5091799;28;20118;-65
2021/03/31 04:58:29;;;;;;;62.72;26.60;;;;;;;1.64;90.54;102158.19;5090943;28;20069;-65
2021/03/31 05:00:55;;;;;;;48.47;23.10;;;;;;;1.61;90.25;102154.81;5091990;28;20164;-65
2021/03/31 05:03:20;;;;;;;52.38;22.73;;;;;;;1.57;90.06;102156.75;5091050;28;20089;-65
2021/03/31 05:05:46;;;;;;;44.13;18.92;;;;;;;1.55;89.89;102160.38;5091829;28;20030;-65
2021/03/31 05:08:11;;;;;;;47.63;21.58;;;;;;;1.57;89.77;102153.25;5090644;28;20078;-65
2021/03/31 05:10:37;;;;;;;42.60;17.90;;;;;;;1.48;89.25;102158.03;5090763;28;20055;-65
2021/03/31 05:13:03;;;;;;;53.93;23.20;;;;;;;1.52;89.48;102148.19;5073797;28;20044;-65
2021/03/31 05:15:28;;;;;;;41.95;20.15;;;;;;;1.56;89.39;102152.41;5091691;28;20028;-65
2021/03/31 05:17:54;;;;;;;43.30;19.47;;;;;;;1.56;89.01;102146.28;5090416;28;20436;-65
2021/03/31 05:20:19;;;;;;;45.17;21.25;;;;;;;1.57;88.74;102148.88;5073526;28;20036;-65
2021/03/31 05:22:45;;;;;;;41.05;18.83;;;;;;;1.62;88.52;102148.66;5073761;28;20097;-65
2021/03/31 05:25:10;;;;;;;42.67;19.60;;;;;;;1.66;88.24;102148.44;5090500;28;20063;-65
2021/03/31 05:27:36;;;;;;;49.97;21.70;;;;;;;1.83;89.46;102149.44;5073359;28;20051;-65
2021/03/31 05:30:04;;;;;;;55.97;24.45;;;;;;;1.92;89.61;102148.13;5090521;28;20048;-65
2021/03/31 05:32:29;;;;;;;47.28;20.27;;;;;;;1.95;89.20;102150.66;5090474;28;20372;-65
2021/03/31 05:34:55;;;;;;;39.70;17.43;;;;;;;1.95;88.72;102151.50;5090432;28;20032;-65
2021/03/31 05:37:20;;;;;;;52.30;22.77;;;;;;;2.20;89.69;102151.19;5090504;28;20043;-65
2021/03/31 05:39:45;;;;;;;53.17;26.83;;;;;;;2.53;90.58;102146.03;5091173;28;20082;-65
2021/03/31 05:42:11;;;;;;;68.33;28.00;;;;;;;2.75;90.71;102158.13;5091143;28;20085;-65
2021/03/31 05:44:37;;;;;;;49.47;23.73;;;;;;;2.74;90.01;102153.81;5090494;28;20275;-65
2021/03/31 05:47:04;;;;;;;;;;;;;;;2.77;89.62;102158.06;5090517;28;20054;-65
2021/03/31 05:49:30;;;;;;;46.08;20.45;;;;;;;2.82;89.43;102156.91;5106934;28;19916;-65
2021/03/31 05:51:56;;;;;;;42.30;19.58;;;;;;;2.83;88.64;102155.09;5073058;28;20514;-65
2021/03/31 05:54:21;;;;;;;;;;;;;;;2.90;88.21;102153.84;5091971;28;20028;-66
2021/03/31 05:56:47;;;;;;;;;;;;;;;3.02;88.78;102147.97;5091554;28;20033;-65
2021/03/31 05:59:13;;;;;;;45.40;21.10;;;;;;;3.14;88.96;102149.13;5106952;28;19927;-65
2021/03/31 06:01:39;;;;;;;42.15;21.25;;;;;;;3.21;88.81;102147.88;5091113;28;20039;-65
2021/03/31 06:04:05;;;;;;;59.58;25.75;;;;;;;3.47;90.20;102148.28;5090993;28;20042;-65
2021/03/31 06:06:31;;;;;;;41.72;22.50;;;;;;;4.74;91.64;102142.91;5089405;28;20624;-65
2021/03/31 06:08:56;;;;;;;38.17;18.73;;;;;;;5.74;86.56;102142.13;5089110;28;20048;-65
2021/03/31 06:11:22;;;;;;;42.70;18.30;;;;;;;6.58;78.05;102141.97;5088401;28;20063;-65
2021/03/31 06:13:53;;;;;;;40.75;18.75;;;;;;;7.19;76.74;102137.78;5088608;28;20047;-65
2021/03/31 06:16:33;;;;;;;39.10;19.67;;;;;;;7.70;73.18;102134.25;5088326;28;20036;-65
2021/03/31 06:19:21;;;;;;;38.55;17.55;;;;;;;8.48;75.34;102141.00;5088160;28;20060;-65
2021/03/31 06:21:57;;;;;;;38.45;18.70;;;;;;;9.27;70.89;102130.50;5090060;28;20044;-65
2021/03/31 06:24:30;;;;;;;37.42;19.45;;;;;;;9.73;67.24;102126.88;5073154;28;20431;-65
2021/03/31 06:26:56;;;;;;;34.58;18.27;;;;;;;9.53;68.35;102125.81;5090815;28;20042;-65
2021/03/31 06:29:21;;;;;;;38.77;18.17;;;;;;;9.57;68.07;102121.91;5087250;28;20032;-65
2021/03/31 06:31:48;;;;;;;43.67;19.23;;;;;;;9.90;66.87;102126.38;5088659;28;20924;-65
2021/03/31 06:34:23;;;;;;;31.52;16.40;;;;;;;10.40;64.60;102117.03;5074104;28;20024;-65
2021/03/31 06:36:55;;;;;;;39.50;18.67;;;;;;;10.23;63.71;102113.91;5092094;28;20078;-65
2021/03/31 06:39:34;;;;;;;32.47;17.10;;;;;;;10.81;64.44;102116.19;5091813;28;20031;-65
2021/03/31 06:42:07;;;;;;;31.70;16.58;;;;;;;10.98;63.85;102112.94;5091985;28;20449;-65
2021/03/31 06:44:45;;;;;;;29.40;16.17;;;;;;;10.74;63.66;102118.53;5092565;28;20123;-65
2021/03/31 06:47:20;;;;;;;27.00;14.75;;;;;;;11.44;62.20;102117.94;5093604;28;20089;-65
2021/03/31 06:49:47;;;;;;;27.80;17.02;;;;;;;11.81;60.56;102115.53;5094318;28;20051;-65
2021/03/31 06:52:12;;;;;;;29.75;15.65;;;;;;;11.84;60.48;102113.41;5093481;28;20089;-65
2021/03/31 06:54:49;;;;;;;24.07;13.77;;;;;;;12.18;60.64;102109.56;5093474;28;20024;-65
2021/03/31 06:57:35;;;;;;;28.08;15.00;;;;;;;12.06;60.39;102111.53;5094233;28;20028;-65
2021/03/31 07:00:07;;;;;;;29.08;15.50;;;;;;;11.92;60.69;102118.13;5093892;28;20048;-65
2021/03/31 07:02:34;;;;;;;29.25;15.85;;;;;;;11.47;61.94;102113.19;5093278;28;20515;-65
2021/03/31 07:04:59;;;;;;;30.05;16.13;;;;;;;11.42;62.89;102107.38;5093209;28;20115;-65
2021/03/31 07:07:41;;;;;;;29.60;15.63;;;;;;;11.50;63.14;102109.38;5092790;28;20115;-65
2021/03/31 07:10:18;;;;;;;26.20;15.90;;;;;;;11.76;62.54;102109.75;5093637;28;20046;-65
2021/03/31 07:12:52;;;;;;;30.17;14.95;;;;;;;11.74;63.87;102107.19;5091986;28;20043;-65
2021/03/31 07:15:27;;;;;;;28.40;16.02;;;;;;;11.91;63.34;102107.53;5092712;28;20042;-65
2021/03/31 07:17:55;;;;;;;26.48;15.88;;;;;;;11.80;63.45;102101.31;5093447;28;20043;-66
2021/03/31 07:20:26;;;;;;;29.13;17.02;;;;;;;12.22;62.34;102102.91;5075879;28;20031;-66
2021/03/31 07:22:53;;;;;;;33.30;17.90;;;;;;;12.37;61.02;102098.00;5076027;28;20468;-66
2021/03/31 07:25:21;;;;;;;36.00;19.08;;;;;;;12.38;61.86;102097.84;5093599;28;20046;-65
2021/03/31 07:27:47;;;;;;;32.50;17.02;;;;;;;12.62;61.03;102102.78;5092554;28;20070;-65
2021/03/31 07:30:17;;;;;;;32.55;16.45;;;;;;;12.63;62.07;102090.22;5093586;28;20044;-66
2021/03/31 07:32:57;;;;;;;31.38;17.67;;;;;;;12.95;60.42;102094.41;5092670;28;20380;-66
2021/03/31 07:35:26;;;;;;;26.13;15.90;;;;;;;13.08;60.27;102094.91;5093552;28;20047;-65
2021/03/31 07:37:53;;;;;;;21.30;13.88;;;;;;;13.35;60.56;102094.16;5093319;28;20384;-64
2021/03/31 07:40:19;;;;;;;;;;;;;;;13.47;59.39;102087.59;5093722;28;20031;-64
2021/03/31 07:42:53;;;;;;;;;;;;;;;13.74;58.82;102088.56;5093746;28;19919;-66
2021/03/31 07:45:23;;;;;;;26.67;13.05;;;;;;;13.78;57.88;102092.66;5093088;28;19973;-64
2021/03/31 07:47:49;;;;;;;24.65;14.30;;;;;;;13.68;58.42;102083.81;5075133;28;20599;-64
2021/03/31 07:50:15;;;;;;;29.60;15.93;;;;;;;14.12;57.33;102081.25;5093220;28;20023;-66
2021/03/31 07:52:58;;;;;;;25.35;14.38;;;;;;;14.41;54.99;102096.28;5075395;28;20165;-64
2021/03/31 07:55:46;;;;;;;26.50;15.55;;;;;;;14.21;56.18;102088.41;5093192;28;20105;-64
2021/03/31 07:58:12;;;;;;;31.33;17.63;;;;;;;14.17;55.00;102086.19;5092003;28;20036;-66
2021/03/31 08:00:53;;;;;;;28.87;16.47;;;;;;;14.52;55.23;102085.31;5093055;28;20097;-66
2021/03/31 08:03:31;;;;;;;25.73;14.55;;;;;;;14.80;55.42;102090.56;5092153;28;20368;-64
2021/03/31 08:06:20;;;;;;;22.67;15.13;;;;;;;14.91;54.84;102077.72;5092805;28;20068;-64
2021/03/31 08:08:49;;;;;;;28.77;18.15;;;;;;;14.98;52.52;102075.22;5091816;28;20648;-64
2021/03/31 08:11:36;;;;;;;32.65;18.27;;;;;;;14.68;52.44;102081.91;5092832;28;20047;-66
2021/03/31 08:14:06;;;;;;;30.50;18.90;;;;;;;14.24;51.71;102079.19;5091759;28;20036;-65
2021/03/31 08:16:36;;;;;;;35.42;19.58;;;;;;;14.79;51.11;102078.97;5091871;28;20040;-66
2021/03/31 08:19:13;;;;;;;28.25;16.65;;;;;;;15.23;50.60;102061.91;5091509;28;20729;-65
2021/03/31 08:21:39;;;;;;;27.60;16.15;;;;;;;16.40;48.44;102067.25;5092675;28;20600;-66
2021/03/31 08:24:05;;;;;;;31.58;19.65;;;;;;;16.27;44.96;102066.06;5091673;28;20089;-66
2021/03/31 08:26:35;;;;;;;32.95;19.98;;;;;;;15.51;45.26;102068.75;5092209;28;20027;-66
2021/03/31 08:29:03;;;;;;;32.75;18.83;;;;;;;16.48;43.42;102065.56;5092268;28;20044;-66
2021/03/31 08:31:30;;;;;;;29.67;17.67;;;;;;;17.33;42.94;102076.72;5092579;28;20031;-64
2021/03/31 08:33:55;;;;;;;34.58;18.67;;;;;;;17.80;42.55;102072.25;5091466;28;20023;-64
2021/03/31 08:36:22;;;;;;;32.97;20.00;;;;;;;17.03;40.33;102071.06;5092442;28;20462;-64
2021/03/31 08:38:55;;;;;;;31.38;20.33;;;;;;;16.43;40.33;102069.59;5091173;28;20056;-63
2021/03/31 08:41:24;;;;;;;29.98;18.67;;;;;;;17.50;40.15;102066.66;5091223;28;20039;-64
2021/03/31 08:43:51;;;;;;;31.38;18.90;;;;;;;17.96;39.29;102060.50;5091344;28;20035;-64
2021/03/31 08:46:31;;;;;;;36.45;21.38;;;;;;;17.77;39.01;102068.06;5091565;28;20043;-64
2021/03/31 08:48:57;;;;;;;31.90;19.60;;;;;;;17.33;37.93;102065.06;5090257;28;20052;-64
2021/03/31 08:51:24;;;;;;;34.22;19.90;;;;;;;17.93;38.19;102056.31;5089444;28;20070;-64
2021/03/31 08:53:50;;;;;;;29.35;19.92;;;;;;;18.19;38.46;102050.56;5090537;28;20027;-64
2021/03/31 08:56:23;;;;;;;30.63;20.20;;;;;;;18.02;38.67;102055.25;5090129;28;20031;-64
2021/03/31 08:58:52;;;;;;;35.22;21.00;;;;;;;18.14;38.90;102051.13;5090365;28;20040;-64
2021/03/31 09:01:30;;;;;;;30.10;19.90;;;;;;;18.71;38.25;102048.91;5090823;28;20036;-64
2021/03/31 09:04:19;;;;;;;28.70;18.45;;;;;;;19.89;36.76;102041.72;5091877;28;20416;-64
2021/03/31 09:06:44;;;;;;;32.05;20.40;;;;;;;19.21;36.79;102038.41;5091862;28;20024;-64
2021/03/31 09:09:09;;;;;;;35.73;21.57;;;;;;;19.34;37.57;102030.47;5090573;28;20040;-64
2021/03/31 09:11:35;;;;;;;42.93;23.03;;;;;;;18.70;37.95;102034.53;5091754;28;20036;-64
2021/03/31 09:14:17;;;;;;;32.75;21.23;;;;;;;19.35;37.71;102032.97;5091863;28;20035;-64
2021/03/31 09:16:56;;;;;;;34.67;20.95;;;;;;;19.33;37.54;102032.31;5091514;28;20027;-64
2021/03/31 09:19:23;;;;;;;31.45;20.50;;;;;;;20.38;35.87;102021.94;5089550;28;20151;-64
2021/03/31 09:21:49;;;;;;;29.05;20.73;;;;;;;20.40;35.34;102014.44;5090402;28;20046;-64
2021/03/31 09:24:19;;;;;;;35.00;21.37;;;;;;;20.85;33.49;102015.81;5090621;28;20044;-64
2021/03/31 09:27:03;;;;;;;38.45;21.92;;;;;;;20.81;29.63;102020.00;5090519;28;20358;-65
2021/03/31 09:29:29;;;;;;;35.95;20.80;;;;;;;20.34;32.88;102010.63;5091254;28;20074;-64
2021/03/31 09:31:57;;;;;;;30.08;19.42;;;;;;;20.71;33.52;102013.25;5090556;28;20032;-65
2021/03/31 09:34:22;;;;;;;31.67;21.25;;;;;;;21.10;31.44;102007.19;5091767;28;20028;-65
2021/03/31 09:37:06;;;;;;;33.25;20.95;;;;;;;21.70;31.34;102001.97;5073730;28;20417;-65
2021/03/31 09:39:48;;;;;;;29.67;21.83;;;;;;;21.64;30.06;102000.94;5090027;28;20048;-65
2021/03/31 09:42:21;;;;;;;32.60;21.02;;;;;;;20.82;31.60;101993.69;5090464;28;20043;-64
2021/03/31 09:44:48;;;;;;;31.88;20.30;;;;;;;20.74;31.23;101989.25;5091180;28;20040;-65
2021/03/31 09:47:15;;;;;;;28.50;20.35;;;;;;;21.13;32.77;101978.78;5073444;28;20089;-65
2021/03/31 09:49:43;;;;;;;29.27;19.85;;;;;;;21.63;30.53;101984.81;5090078;28;20042;-65
2021/03/31 09:52:09;;;;;;;27.98;19.55;;;;;;;21.30;31.26;101977.38;5091249;28;20457;-65
2021/03/31 09:54:35;;;;;;;32.22;19.67;;;;;;;20.54;31.55;101980.97;5091245;28;20081;-65
2021/03/31 09:57:01;;;;;;;28.10;19.02;;;;;;;20.74;32.71;101974.84;5090264;28;20059;-65
2021/03/31 09:59:27;;;;;;;29.02;19.45;;;;;;;21.41;30.83;101976.00;5106906;28;20591;-65
2021/03/31 10:01:53;;;;;;;33.83;21.17;;;;;;;20.97;32.09;101975.38;5090253;28;20043;-65
2021/03/31 10:04:19;;;;;;;30.13;20.17;;;;;;;20.78;32.86;101965.25;5091097;28;20048;-65
2021/03/31 10:06:45;;;;;;;34.28;21.15;;;;;;;20.33;32.52;101962.03;5091169;28;20447;-65
2021/03/31 10:09:15;;;;;;;32.73;20.90;;;;;;;20.45;31.63;101963.16;5077145;28;20040;-65
2021/03/31 10:11:41;;;;;;;31.30;20.77;;;;;;;20.67;31.50;101955.81;5094108;28;20035;-65
2021/03/31 10:14:20;;;;;;;34.00;20.77;;;;;;;20.91;30.97;101959.91;5094300;28;20465;-65
2021/03/31 10:16:47;;;;;;;37.08;20.88;;;;;;;21.67;31.38;101951.59;5095114;28;20043;-65
2021/03/31 10:19:13;;;;;;;29.65;20.48;;;;;;;21.45;29.60;101948.22;5093783;28;20032;-65
2021/03/31 10:21:38;;;;;;;;;;;;;;;21.66;28.53;101944.50;5095423;28;20040;-65
2021/03/31 10:24:05;;;;;;;33.40;20.63;;;;;;;21.59;29.85;101940.09;5094979;28;20332;-65
2021/03/31 10:26:33;;;;;;;32.95;19.90;;;;;;;21.77;30.20;101934.03;5094797;28;20093;-65
2021/03/31 10:29:02;;;;;;;29.63;20.63;;;;;;;22.51;29.52;101925.63;5094646;28;20032;-65
2021/03/31 10:31:39;;;;;;;30.52;20.15;;;;;;;22.41;28.53;101933.41;5093850;28;20028;-65
2021/03/31 10:34:06;;;;;;;33.88;22.40;;;;;;;20.82;31.08;101923.94;5093924;28;20070;-65
2021/03/31 10:40:14;;;;;;;34.08;21.20;;;;;;;22.32;28.62;101923.81;5094422;28;20028;-65
2021/03/31 10:51:22;;;;;;;29.15;20.10;;;;;;;23.07;25.90;101904.31;5094464;28;20471;-65
2021/03/31 10:53:57;;;;;;;33.45;20.45;;;;;;;24.18;24.58;101906.41;5093469;28;20368;-66
2021/03/31 10:56:23;;;;;;;25.45;18.27;;;;;;;24.38;22.74;101898.03;5094265;28;20424;-66
2021/03/31 10:58:49;;;;;;;26.88;19.08;;;;;;;23.34;24.49;101899.53;5093054;28;20043;-66
2021/03/31 11:01:14;;;;;;;29.92;21.45;;;;;;;23.15;24.96;101893.13;5093216;28;20054;-66
2021/03/31 11:03:39;;;;;;;29.50;19.57;;;;;;;24.04;24.24;101898.59;5094311;28;20115;-66
2021/03/31 11:06:05;;;;;;;23.67;17.90;;;;;;;24.10;23.17;101894.97;5093063;28;20043;-66
2021/03/31 11:08:31;;;;;;;30.52;21.15;;;;;;;23.98;23.92;101895.69;5092869;28;20074;-66
2021/03/31 11:10:56;;;;;;;30.67;20.77;;;;;;;23.51;24.43;101889.78;5094075;28;20473;-66
2021/03/31 11:13:22;;;;;;;29.63;20.57;;;;;;;21.90;26.56;101883.22;5092630;28;20032;-65
2021/03/31 11:15:47;;;;;;;30.03;18.93;;;;;;;22.79;25.45;101893.72;5091532;28;20719;-65
2021/03/31 11:18:22;;;;;;;30.52;20.00;;;;;;;24.34;24.15;101885.88;5091402;28;20278;-65
2021/03/31 11:21:06;;;;;;;28.17;21.05;;;;;;;23.06;24.05;101881.69;5092859;28;20039;-66
2021/03/31 11:26:15;;;;;;;28.17;18.95;;;;;;;23.99;24.94;101874.72;5091600;28;20038;-66
2021/03/31 11:28:42;;;;;;;28.93;20.40;;;;;;;24.42;23.04;101874.69;5090921;28;20040;-66
2021/03/31 11:31:08;;;;;;;29.05;19.02;;;;;;;24.10;24.02;101873.16;5074206;28;20032;-66
2021/03/31 11:33:34;;;;;;;31.30;20.80;;;;;;;24.47;22.48;101870.44;5091064;28;20036;-66
2021/03/31 11:35:59;;;;;;;31.00;19.17;;;;;;;23.03;25.42;101867.66;5091957;28;20046;-66
2021/03/31 11:38:25;;;;;;;29.60;20.88;;;;;;;23.12;24.93;101864.44;5091466;28;20036;-66
2021/03/31 11:40:51;;;;;;;30.38;20.75;;;;;;;23.78;23.65;101863.16;5092121;28;20055;-66